createdAt,value
2016-09-28T00:00:12.336Z,1005.8
2016-09-28T00:00:32.889Z,1005.8
2016-09-28T00:00:53.475Z,1005.8
2016-09-28T00:01:14.040Z,1005.8
2016-09-28T00:01:34.602Z,1005.8
2016-09-28T00:01:55.145Z,1005.8
2016-09-28T00:02:15.727Z,1005.7
2016-09-28T00:02:36.303Z,1005.8
2016-09-28T00:02:56.891Z,1005.8
2016-09-28T00:03:17.461Z,1005.8
2016-09-28T00:03:38.027Z,1005.8
2016-09-28T00:03:58.596Z,1005.8
2016-09-28T00:04:19.199Z,1005.8
2016-09-28T00:04:39.793Z,1005.8
2016-09-28T00:05:00.336Z,1005.8
2016-09-28T00:05:20.908Z,1005.8
2016-09-28T00:05:41.473Z,1005.8
2016-09-28T00:06:02.045Z,1005.8
2016-09-28T00:06:22.615Z,1005.8
2016-09-28T00:06:43.179Z,1005.8
2016-09-28T00:07:03.769Z,1005.8
2016-09-28T00:07:24.345Z,1005.8
2016-09-28T00:07:44.916Z,1005.8
2016-09-28T00:08:05.472Z,1005.8
2016-09-28T00:08:26.045Z,1005.8
2016-09-28T00:08:46.624Z,1005.8
2016-09-28T00:09:07.187Z,1005.8
2016-09-28T00:09:27.784Z,1005.7
2016-09-28T00:09:48.354Z,1005.7
2016-09-28T00:10:08.930Z,1005.7
2016-09-28T00:10:29.524Z,1005.7
2016-09-28T00:10:50.109Z,1005.7
2016-09-28T00:11:10.670Z,1005.7
2016-09-28T00:11:31.236Z,1005.7
2016-09-28T00:11:51.813Z,1005.7
2016-09-28T00:12:12.390Z,1005.7
2016-09-28T00:12:32.964Z,1005.7
2016-09-28T00:12:53.535Z,1005.8
2016-09-28T00:13:14.109Z,1005.7
2016-09-28T00:13:34.686Z,1005.7
2016-09-28T00:13:55.287Z,1005.8
2016-09-28T00:14:15.851Z,1005.7
2016-09-28T00:14:36.431Z,1005.7
2016-09-28T00:14:57.017Z,1005.8
2016-09-28T00:15:17.607Z,1005.7
2016-09-28T00:15:38.197Z,1005.7
2016-09-28T00:15:58.764Z,1005.7
2016-09-28T00:16:19.321Z,1005.8
2016-09-28T00:16:39.894Z,1005.7
2016-09-28T00:17:00.486Z,1005.7
2016-09-28T00:17:21.057Z,1005.7
2016-09-28T00:17:41.614Z,1005.7
2016-09-28T00:18:02.188Z,1005.8
2016-09-28T00:18:22.783Z,1005.8
2016-09-28T00:18:43.356Z,1005.8
2016-09-28T00:19:03.946Z,1005.7
2016-09-28T00:19:24.505Z,1005.7
2016-09-28T00:19:45.080Z,1005.7
2016-09-28T00:20:05.668Z,1005.7
2016-09-28T00:20:26.232Z,1005.7
2016-09-28T00:20:46.788Z,1005.8
2016-09-28T00:21:07.359Z,1005.7
2016-09-28T00:21:27.919Z,1005.7
2016-09-28T00:21:48.485Z,1005.8
2016-09-28T00:22:09.066Z,1005.8
2016-09-28T00:22:29.641Z,1005.8
2016-09-28T00:22:50.231Z,1005.8
2016-09-28T00:23:10.828Z,1005.8
2016-09-28T00:23:31.397Z,1005.8
2016-09-28T00:23:51.988Z,1005.8
2016-09-28T00:24:12.551Z,1005.9
2016-09-28T00:24:33.121Z,1005.8
2016-09-28T00:24:53.688Z,1005.8
2016-09-28T00:25:14.271Z,1005.8
2016-09-28T00:25:34.837Z,1005.8
2016-09-28T00:25:55.410Z,1005.9
2016-09-28T00:26:15.974Z,1005.8
2016-09-28T00:26:36.548Z,1005.8
2016-09-28T00:26:57.123Z,1005.9
2016-09-28T00:27:17.675Z,1005.9
2016-09-28T00:27:38.252Z,1005.8
2016-09-28T00:27:58.824Z,1005.8
2016-09-28T00:28:19.387Z,1005.8
2016-09-28T00:28:39.957Z,1005.8
2016-09-28T00:29:00.524Z,1005.9
2016-09-28T00:29:21.101Z,1005.9
2016-09-28T00:29:41.693Z,1005.9
2016-09-28T00:30:02.262Z,1005.9
2016-09-28T00:30:22.834Z,1005.9
2016-09-28T00:30:43.400Z,1005.9
2016-09-28T00:31:03.966Z,1005.9
2016-09-28T00:31:24.533Z,1005.9
2016-09-28T00:31:45.105Z,1005.9
2016-09-28T00:32:05.668Z,1005.9
2016-09-28T00:32:26.241Z,1005.9
2016-09-28T00:32:46.809Z,1005.9
2016-09-28T00:33:07.389Z,1005.9
2016-09-28T00:33:27.978Z,1005.9
2016-09-28T00:33:48.552Z,1005.9
2016-09-28T00:34:09.144Z,1005.9
2016-09-28T00:34:29.764Z,1005.9
2016-09-28T00:34:50.335Z,1005.9
2016-09-28T00:35:10.921Z,1005.9
2016-09-28T00:35:31.494Z,1005.8
2016-09-28T00:35:52.091Z,1005.9
2016-09-28T00:36:12.673Z,1005.9
2016-09-28T00:36:33.239Z,1005.9
2016-09-28T00:36:53.799Z,1005.9
2016-09-28T00:37:14.376Z,1005.9
2016-09-28T00:37:34.956Z,1005.9
2016-09-28T00:37:55.539Z,1005.8
2016-09-28T00:38:16.116Z,1005.9
2016-09-28T00:38:36.699Z,1005.8
2016-09-28T00:38:57.281Z,1005.9
2016-09-28T00:39:17.865Z,1005.8
2016-09-28T00:39:38.433Z,1005.8
2016-09-28T00:39:59.007Z,1005.8
2016-09-28T00:40:19.576Z,1005.8
2016-09-28T00:40:40.137Z,1005.8
2016-09-28T00:41:00.728Z,1005.7
2016-09-28T00:41:21.300Z,1005.7
2016-09-28T00:41:41.869Z,1005.7
2016-09-28T00:42:02.462Z,1005.7
2016-09-28T00:42:23.036Z,1005.7
2016-09-28T00:42:43.614Z,1005.7
2016-09-28T00:43:04.206Z,1005.7
2016-09-28T00:43:24.774Z,1005.7
2016-09-28T00:43:45.338Z,1005.7
2016-09-28T00:44:05.916Z,1005.7
2016-09-28T00:44:26.505Z,1005.7
2016-09-28T00:44:47.073Z,1005.7
2016-09-28T00:45:07.645Z,1005.6
2016-09-28T00:45:28.229Z,1005.6
2016-09-28T00:45:48.823Z,1005.7
2016-09-28T00:46:09.399Z,1005.6
2016-09-28T00:46:29.951Z,1005.7
2016-09-28T00:46:50.525Z,1005.7
2016-09-28T00:47:11.099Z,1005.7
2016-09-28T00:47:31.673Z,1005.6
2016-09-28T00:47:52.253Z,1005.7
2016-09-28T00:48:12.813Z,1005.6
2016-09-28T00:48:33.381Z,1005.6
2016-09-28T00:48:53.950Z,1005.6
2016-09-28T00:49:14.532Z,1005.6
2016-09-28T00:49:35.126Z,1005.6
2016-09-28T00:49:55.688Z,1005.6
2016-09-28T00:50:16.263Z,1005.6
2016-09-28T00:50:36.837Z,1005.6
2016-09-28T00:50:57.403Z,1005.6
2016-09-28T00:51:17.955Z,1005.6
2016-09-28T00:51:38.514Z,1005.6
2016-09-28T00:51:59.076Z,1005.6
2016-09-28T00:52:19.637Z,1005.6
2016-09-28T00:52:40.222Z,1005.6
2016-09-28T00:53:00.791Z,1005.6
2016-09-28T00:53:21.363Z,1005.6
2016-09-28T00:53:41.978Z,1005.6
2016-09-28T00:54:02.542Z,1005.6
2016-09-28T00:54:23.126Z,1005.6
2016-09-28T00:54:43.711Z,1005.6
2016-09-28T00:55:04.299Z,1005.6
2016-09-28T00:55:24.869Z,1005.6
2016-09-28T00:55:45.453Z,1005.6
2016-09-28T00:56:06.022Z,1005.6
2016-09-28T00:56:26.595Z,1005.6
2016-09-28T00:56:47.167Z,1005.6
2016-09-28T00:57:07.741Z,1005.6
2016-09-28T00:57:28.310Z,1005.6
2016-09-28T00:57:48.901Z,1005.6
2016-09-28T00:58:09.479Z,1005.6
2016-09-28T00:58:30.070Z,1005.6
2016-09-28T00:58:50.652Z,1005.5
2016-09-28T00:59:11.222Z,1005.5
2016-09-28T00:59:31.815Z,1005.6
2016-09-28T00:59:52.393Z,1005.6
2016-09-28T01:00:12.984Z,1005.6
2016-09-28T01:00:33.582Z,1005.5
2016-09-28T01:00:54.160Z,1005.5
2016-09-28T01:01:14.744Z,1005.5
2016-09-28T01:01:35.308Z,1005.6
2016-09-28T01:01:55.886Z,1005.6
2016-09-28T01:02:16.469Z,1005.5
2016-09-28T01:02:37.043Z,1005.6
2016-09-28T01:02:57.629Z,1005.6
2016-09-28T01:03:18.198Z,1005.5
2016-09-28T01:03:38.778Z,1005.5
2016-09-28T01:03:59.348Z,1005.5
2016-09-28T01:04:19.947Z,1005.5
2016-09-28T01:04:40.532Z,1005.5
2016-09-28T01:05:01.102Z,1005.6
2016-09-28T01:05:21.697Z,1005.6
2016-09-28T01:05:42.256Z,1005.5
2016-09-28T01:06:02.814Z,1005.5
2016-09-28T01:06:23.405Z,1005.6
2016-09-28T01:06:43.995Z,1005.5
2016-09-28T01:07:04.596Z,1005.5
2016-09-28T01:07:25.165Z,1005.5
2016-09-28T01:07:45.731Z,1005.5
2016-09-28T01:08:06.306Z,1005.5
2016-09-28T01:08:26.879Z,1005.6
2016-09-28T01:08:47.457Z,1005.6
2016-09-28T01:09:08.021Z,1005.6
2016-09-28T01:09:28.586Z,1005.6
2016-09-28T01:09:49.169Z,1005.6
2016-09-28T01:10:09.763Z,1005.5
2016-09-28T01:10:30.344Z,1005.6
2016-09-28T01:10:50.906Z,1005.6
2016-09-28T01:11:11.482Z,1005.6
2016-09-28T01:11:32.076Z,1005.6
2016-09-28T01:11:52.669Z,1005.6
2016-09-28T01:12:13.223Z,1005.6
2016-09-28T01:12:33.794Z,1005.5
2016-09-28T01:12:54.367Z,1005.6
2016-09-28T01:13:14.935Z,1005.5
2016-09-28T01:13:35.506Z,1005.5
2016-09-28T01:13:56.075Z,1005.5
2016-09-28T01:14:16.646Z,1005.6
2016-09-28T01:14:37.225Z,1005.5
2016-09-28T01:14:57.789Z,1005.5
2016-09-28T01:15:18.371Z,1005.4
2016-09-28T01:15:38.928Z,1005.5
2016-09-28T01:15:59.505Z,1005.4
2016-09-28T01:16:20.101Z,1005.4
2016-09-28T01:16:40.672Z,1005.5
2016-09-28T01:17:01.289Z,1005.5
2016-09-28T01:17:21.866Z,1005.4
2016-09-28T01:17:42.444Z,1005.4
2016-09-28T01:18:03.017Z,1005.4
2016-09-28T01:18:23.607Z,1005.4
2016-09-28T01:18:44.176Z,1005.4
2016-09-28T01:19:04.761Z,1005.4
2016-09-28T01:19:25.339Z,1005.4
2016-09-28T01:19:45.935Z,1005.3
2016-09-28T01:20:06.515Z,1005.3
2016-09-28T01:20:27.079Z,1005.3
2016-09-28T01:20:47.662Z,1005.3
2016-09-28T01:21:08.243Z,1005.3
2016-09-28T01:21:28.849Z,1005.4
2016-09-28T01:21:49.444Z,1005.3
2016-09-28T01:22:10.009Z,1005.3
2016-09-28T01:22:30.571Z,1005.3
2016-09-28T01:22:51.156Z,1005.3
2016-09-28T01:23:11.725Z,1005.3
2016-09-28T01:23:32.281Z,1005.3
2016-09-28T01:23:52.850Z,1005.3
2016-09-28T01:24:13.436Z,1005.3
2016-09-28T01:24:34.031Z,1005.3
2016-09-28T01:24:54.620Z,1005.3
2016-09-28T01:25:15.183Z,1005.3
2016-09-28T01:25:35.750Z,1005.3
2016-09-28T01:25:56.350Z,1005.3
2016-09-28T01:26:16.938Z,1005.3
2016-09-28T01:26:37.512Z,1005.3
2016-09-28T01:26:58.079Z,1005.2
2016-09-28T01:27:18.740Z,1005.2
2016-09-28T01:27:39.316Z,1005.2
2016-09-28T01:27:59.899Z,1005.2
2016-09-28T01:28:20.474Z,1005.2
2016-09-28T01:28:41.035Z,1005.2
2016-09-28T01:29:01.611Z,1005.2
2016-09-28T01:29:22.191Z,1005.2
2016-09-28T01:29:42.760Z,1005.1
2016-09-28T01:30:03.331Z,1005.1
2016-09-28T01:30:23.924Z,1005.1
2016-09-28T01:30:44.497Z,1005.1
2016-09-28T01:31:05.071Z,1005.1
2016-09-28T01:31:25.630Z,1005.1
2016-09-28T01:31:46.197Z,1005.2
2016-09-28T01:32:06.808Z,1005.2
2016-09-28T01:32:27.376Z,1005.2
2016-09-28T01:32:47.950Z,1005.2
2016-09-28T01:33:08.515Z,1005.2
2016-09-28T01:33:29.089Z,1005.2
2016-09-28T01:33:49.661Z,1005.2
2016-09-28T01:34:10.229Z,1005.2
2016-09-28T01:34:30.814Z,1005.2
2016-09-28T01:34:51.409Z,1005.2
2016-09-28T01:35:12.031Z,1005.2
2016-09-28T01:35:32.608Z,1005.2
2016-09-28T01:35:53.201Z,1005.2
2016-09-28T01:36:13.760Z,1005.2
2016-09-28T01:36:34.342Z,1005.2
2016-09-28T01:36:54.898Z,1005.2
2016-09-28T01:37:15.473Z,1005.3
2016-09-28T01:37:36.053Z,1005.3
2016-09-28T01:37:56.606Z,1005.2
2016-09-28T01:38:17.180Z,1005.3
2016-09-28T01:38:37.770Z,1005.3
2016-09-28T01:38:58.355Z,1005.3
2016-09-28T01:39:18.922Z,1005.2
2016-09-28T01:39:39.495Z,1005.3
2016-09-28T01:40:00.067Z,1005.3
2016-09-28T01:40:20.648Z,1005.3
2016-09-28T01:40:41.220Z,1005.3
2016-09-28T01:41:01.811Z,1005.3
2016-09-28T01:41:22.378Z,1005.3
2016-09-28T01:41:42.959Z,1005.3
2016-09-28T01:42:03.547Z,1005.3
2016-09-28T01:42:24.142Z,1005.3
2016-09-28T01:42:44.716Z,1005.3
2016-09-28T01:43:05.298Z,1005.3
2016-09-28T01:43:25.888Z,1005.3
2016-09-28T01:43:46.492Z,1005.3
2016-09-28T01:44:07.060Z,1005.3
2016-09-28T01:44:27.625Z,1005.3
2016-09-28T01:44:48.197Z,1005.3
2016-09-28T01:45:08.787Z,1005.3
2016-09-28T01:45:29.360Z,1005.3
2016-09-28T01:45:49.912Z,1005.2
2016-09-28T01:46:10.482Z,1005.2
2016-09-28T01:46:31.064Z,1005.2
2016-09-28T01:46:51.633Z,1005.2
2016-09-28T01:47:12.205Z,1005.2
2016-09-28T01:47:32.772Z,1005.2
2016-09-28T01:47:53.345Z,1005.2
2016-09-28T01:48:13.925Z,1005.2
2016-09-28T01:48:34.505Z,1005.2
2016-09-28T01:48:55.069Z,1005.2
2016-09-28T01:49:15.643Z,1005.1
2016-09-28T01:49:36.238Z,1005.1
2016-09-28T01:49:56.821Z,1005.2
2016-09-28T01:50:17.507Z,1005.1
2016-09-28T01:50:38.080Z,1005.1
2016-09-28T01:50:58.659Z,1005.1
2016-09-28T01:51:19.230Z,1005.1
2016-09-28T01:51:39.809Z,1005.1
2016-09-28T01:52:00.405Z,1005.1
2016-09-28T01:52:20.972Z,1005.1
2016-09-28T01:52:41.562Z,1005.1
2016-09-28T01:53:02.137Z,1005.1
2016-09-28T01:53:22.714Z,1005.1
2016-09-28T01:53:43.271Z,1005.1
2016-09-28T01:54:03.857Z,1005.1
2016-09-28T01:54:24.438Z,1005.1
2016-09-28T01:54:45.166Z,1005.1
2016-09-28T01:55:06.076Z,1005.2
2016-09-28T01:55:26.624Z,1005.2
2016-09-28T01:55:47.178Z,1005.1
2016-09-28T01:56:07.740Z,1005.2
2016-09-28T01:56:28.311Z,1005.2
2016-09-28T01:56:48.875Z,1005.2
2016-09-28T01:57:09.443Z,1005.2
2016-09-28T01:57:30.015Z,1005.2
2016-09-28T01:57:50.600Z,1005.2
2016-09-28T01:58:11.180Z,1005.2
2016-09-28T01:58:31.743Z,1005.2
2016-09-28T01:58:52.328Z,1005.2
2016-09-28T01:59:12.893Z,1005.2
2016-09-28T01:59:33.489Z,1005.2
2016-09-28T01:59:54.061Z,1005.2
2016-09-28T02:00:14.626Z,1005.2
2016-09-28T02:00:35.189Z,1005.2
2016-09-28T02:00:55.750Z,1005.2
2016-09-28T02:01:16.343Z,1005.2
2016-09-28T02:01:36.919Z,1005.2
2016-09-28T02:01:57.488Z,1005.1
2016-09-28T02:02:18.055Z,1005.2
2016-09-28T02:02:38.628Z,1005.2
2016-09-28T02:02:59.215Z,1005.2
2016-09-28T02:03:19.794Z,1005.2
2016-09-28T02:03:40.375Z,1005.1
2016-09-28T02:04:00.970Z,1005.1
2016-09-28T02:04:21.529Z,1005.1
2016-09-28T02:04:42.099Z,1005.2
2016-09-28T02:05:02.664Z,1005.2
2016-09-28T02:05:23.300Z,1005.1
2016-09-28T02:05:43.882Z,1005.2
2016-09-28T02:06:04.453Z,1005.2
2016-09-28T02:06:25.020Z,1005.2
2016-09-28T02:06:45.593Z,1005.2
2016-09-28T02:07:06.172Z,1005.2
2016-09-28T02:07:26.753Z,1005.1
2016-09-28T02:07:47.346Z,1005.1
2016-09-28T02:08:07.935Z,1005.1
2016-09-28T02:08:28.495Z,1005.1
2016-09-28T02:08:49.090Z,1005.1
2016-09-28T02:09:09.663Z,1005.1
2016-09-28T02:09:30.251Z,1005.1
2016-09-28T02:09:50.810Z,1005.2
2016-09-28T02:10:11.505Z,1005.1
2016-09-28T02:10:32.068Z,1005.1
2016-09-28T02:10:52.640Z,1005.2
2016-09-28T02:11:13.227Z,1005.2
2016-09-28T02:11:33.782Z,1005.2
2016-09-28T02:11:54.354Z,1005.2
2016-09-28T02:12:14.930Z,1005.1
2016-09-28T02:12:35.512Z,1005.1
2016-09-28T02:12:56.079Z,1005.2
2016-09-28T02:13:16.665Z,1005.2
2016-09-28T02:13:37.222Z,1005.2
2016-09-28T02:13:57.798Z,1005.2
2016-09-28T02:14:18.357Z,1005.2
2016-09-28T02:14:38.924Z,1005.1
2016-09-28T02:14:59.499Z,1005.2
2016-09-28T02:15:20.104Z,1005.1
2016-09-28T02:15:40.680Z,1005.2
2016-09-28T02:16:01.246Z,1005.1
2016-09-28T02:16:21.869Z,1005.1
2016-09-28T02:16:42.476Z,1005.1
2016-09-28T02:17:03.053Z,1005.2
2016-09-28T02:17:23.654Z,1005.2
2016-09-28T02:17:44.236Z,1005.1
2016-09-28T02:18:04.802Z,1005.1
2016-09-28T02:18:25.366Z,1005.1
2016-09-28T02:18:45.950Z,1005.1
2016-09-28T02:19:06.534Z,1005.1
2016-09-28T02:19:27.107Z,1005.1
2016-09-28T02:19:47.674Z,1005.1
2016-09-28T02:20:08.325Z,1005.1
2016-09-28T02:20:28.896Z,1005.1
2016-09-28T02:20:49.477Z,1005.1
2016-09-28T02:21:10.057Z,1005
2016-09-28T02:21:30.609Z,1005
2016-09-28T02:21:51.192Z,1005
2016-09-28T02:22:11.757Z,1005
2016-09-28T02:22:32.323Z,1005
2016-09-28T02:22:52.906Z,1005
2016-09-28T02:23:13.466Z,1005
2016-09-28T02:23:34.032Z,1004.9
2016-09-28T02:23:54.598Z,1004.9
2016-09-28T02:24:15.174Z,1005
2016-09-28T02:24:35.755Z,1004.9
2016-09-28T02:24:56.343Z,1005
2016-09-28T02:25:16.919Z,1005
2016-09-28T02:25:37.493Z,1004.9
2016-09-28T02:25:58.073Z,1005
2016-09-28T02:26:18.649Z,1005
2016-09-28T02:26:39.220Z,1005
2016-09-28T02:26:59.785Z,1005
2016-09-28T02:27:20.354Z,1005
2016-09-28T02:27:40.924Z,1005
2016-09-28T02:28:01.479Z,1005
2016-09-28T02:28:22.040Z,1005
2016-09-28T02:28:42.611Z,1005
2016-09-28T02:29:03.723Z,1005
2016-09-28T02:29:24.281Z,1005
2016-09-28T02:29:45.652Z,1005
2016-09-28T02:30:06.223Z,1005.1
2016-09-28T02:30:26.801Z,1005
2016-09-28T02:30:47.381Z,1005
2016-09-28T02:31:07.947Z,1005
2016-09-28T02:31:28.515Z,1005.1
2016-09-28T02:31:49.084Z,1005.1
2016-09-28T02:32:09.658Z,1005.1
2016-09-28T02:32:30.227Z,1005.1
2016-09-28T02:32:50.794Z,1005
2016-09-28T02:33:11.365Z,1005.1
2016-09-28T02:33:31.941Z,1005.1
2016-09-28T02:33:52.534Z,1005
2016-09-28T02:34:13.100Z,1005.1
2016-09-28T02:34:33.676Z,1005.1
2016-09-28T02:34:54.258Z,1005.1
2016-09-28T02:35:14.831Z,1005.1
2016-09-28T02:35:35.412Z,1005
2016-09-28T02:35:55.978Z,1005
2016-09-28T02:36:16.567Z,1005
2016-09-28T02:36:37.122Z,1005.1
2016-09-28T02:36:57.688Z,1005
2016-09-28T02:37:18.260Z,1005.1
2016-09-28T02:37:38.843Z,1005.1
2016-09-28T02:37:59.417Z,1005.1
2016-09-28T02:38:20.020Z,1005
2016-09-28T02:38:40.595Z,1005.1
2016-09-28T02:39:01.161Z,1005
2016-09-28T02:39:21.734Z,1005
2016-09-28T02:39:42.343Z,1005
2016-09-28T02:40:02.942Z,1005.1
2016-09-28T02:40:23.528Z,1005
2016-09-28T02:40:44.098Z,1005
2016-09-28T02:41:04.689Z,1005
2016-09-28T02:41:25.268Z,1005.1
2016-09-28T02:41:45.846Z,1005
2016-09-28T02:42:06.436Z,1005.1
2016-09-28T02:42:26.990Z,1005.1
2016-09-28T02:42:47.565Z,1005
2016-09-28T02:43:08.181Z,1005
2016-09-28T02:43:28.766Z,1005
2016-09-28T02:43:49.337Z,1005
2016-09-28T02:44:09.908Z,1005
2016-09-28T02:44:30.474Z,1005.1
2016-09-28T02:44:51.060Z,1005.1
2016-09-28T02:45:11.644Z,1005.1
2016-09-28T02:45:32.220Z,1005
2016-09-28T02:45:52.786Z,1005.1
2016-09-28T02:46:13.365Z,1005.1
2016-09-28T02:46:33.946Z,1005
2016-09-28T02:46:54.512Z,1005.1
2016-09-28T02:47:15.083Z,1005.1
2016-09-28T02:47:35.666Z,1005.1
2016-09-28T02:47:56.254Z,1005.1
2016-09-28T02:48:16.844Z,1005.1
2016-09-28T02:48:37.406Z,1005.1
2016-09-28T02:48:57.985Z,1005.1
2016-09-28T02:49:18.564Z,1005.1
2016-09-28T02:49:39.135Z,1005
2016-09-28T02:49:59.707Z,1005
2016-09-28T02:50:20.320Z,1005.1
2016-09-28T02:50:40.891Z,1005
2016-09-28T02:51:01.465Z,1005
2016-09-28T02:51:22.064Z,1005
2016-09-28T02:51:42.618Z,1005
2016-09-28T02:52:03.183Z,1005
2016-09-28T02:52:23.749Z,1005
2016-09-28T02:52:44.327Z,1005
2016-09-28T02:53:04.909Z,1005
2016-09-28T02:53:25.471Z,1005
2016-09-28T02:53:46.050Z,1005
2016-09-28T02:54:06.627Z,1005
2016-09-28T02:54:27.222Z,1004.9
2016-09-28T02:54:47.779Z,1004.9
2016-09-28T02:55:08.361Z,1004.9
2016-09-28T02:55:28.933Z,1004.9
2016-09-28T02:55:49.505Z,1005
2016-09-28T02:56:10.089Z,1005
2016-09-28T02:56:30.659Z,1004.9
2016-09-28T02:56:51.227Z,1005
2016-09-28T02:57:11.992Z,1004.9
2016-09-28T02:57:32.615Z,1004.9
2016-09-28T02:57:53.179Z,1005
2016-09-28T02:58:13.757Z,1004.9
2016-09-28T02:58:34.320Z,1004.9
2016-09-28T02:58:54.894Z,1004.9
2016-09-28T02:59:15.493Z,1004.9
2016-09-28T02:59:36.082Z,1004.9
2016-09-28T02:59:56.644Z,1004.9
2016-09-28T03:00:17.292Z,1004.9
2016-09-28T03:00:37.883Z,1004.9
2016-09-28T03:00:58.489Z,1004.9
2016-09-28T03:01:19.049Z,1004.9
2016-09-28T03:01:39.623Z,1004.9
2016-09-28T03:02:00.206Z,1004.9
2016-09-28T03:02:20.778Z,1005
2016-09-28T03:02:41.354Z,1005
2016-09-28T03:03:01.927Z,1004.9
2016-09-28T03:03:22.503Z,1004.9
2016-09-28T03:03:43.080Z,1004.9
2016-09-28T03:04:03.645Z,1005
2016-09-28T03:04:24.210Z,1005
2016-09-28T03:04:44.827Z,1004.9
2016-09-28T03:05:05.449Z,1005
2016-09-28T03:05:26.039Z,1005
2016-09-28T03:05:46.593Z,1004.9
2016-09-28T03:06:07.164Z,1005
2016-09-28T03:06:27.746Z,1005
2016-09-28T03:06:48.318Z,1004.9
2016-09-28T03:07:08.890Z,1005
2016-09-28T03:07:29.460Z,1004.9
2016-09-28T03:07:50.038Z,1005
2016-09-28T03:08:10.614Z,1005
2016-09-28T03:08:31.195Z,1005
2016-09-28T03:08:51.766Z,1005
2016-09-28T03:09:12.336Z,1004.9
2016-09-28T03:09:32.917Z,1004.9
2016-09-28T03:09:53.507Z,1004.9
2016-09-28T03:10:14.083Z,1004.9
2016-09-28T03:10:34.659Z,1004.9
2016-09-28T03:10:55.230Z,1004.9
2016-09-28T03:11:15.831Z,1004.9
2016-09-28T03:11:36.434Z,1004.9
2016-09-28T03:11:56.995Z,1004.9
2016-09-28T03:12:17.578Z,1004.9
2016-09-28T03:12:38.185Z,1004.9
2016-09-28T03:12:58.762Z,1004.9
2016-09-28T03:13:19.326Z,1004.9
2016-09-28T03:13:39.905Z,1004.9
2016-09-28T03:14:00.470Z,1004.9
2016-09-28T03:14:21.060Z,1004.9
2016-09-28T03:14:41.646Z,1004.9
2016-09-28T03:15:02.205Z,1004.9
2016-09-28T03:15:22.789Z,1004.9
2016-09-28T03:15:43.348Z,1004.9
2016-09-28T03:16:03.922Z,1004.8
2016-09-28T03:16:24.520Z,1004.8
2016-09-28T03:16:45.081Z,1004.8
2016-09-28T03:17:05.666Z,1004.8
2016-09-28T03:17:26.257Z,1004.8
2016-09-28T03:17:46.862Z,1004.8
2016-09-28T03:18:07.440Z,1004.8
2016-09-28T03:18:28.016Z,1004.8
2016-09-28T03:18:48.602Z,1004.8
2016-09-28T03:19:09.230Z,1004.7
2016-09-28T03:19:29.804Z,1004.8
2016-09-28T03:19:50.371Z,1004.8
2016-09-28T03:20:10.976Z,1004.8
2016-09-28T03:20:31.570Z,1004.8
2016-09-28T03:20:52.163Z,1004.8
2016-09-28T03:21:12.750Z,1004.8
2016-09-28T03:21:33.325Z,1004.8
2016-09-28T03:21:53.909Z,1004.7
2016-09-28T03:22:14.499Z,1004.7
2016-09-28T03:22:35.073Z,1004.7
2016-09-28T03:22:55.636Z,1004.7
2016-09-28T03:23:16.218Z,1004.7
2016-09-28T03:23:36.794Z,1004.7
2016-09-28T03:23:57.373Z,1004.7
2016-09-28T03:24:17.976Z,1004.7
2016-09-28T03:24:38.550Z,1004.7
2016-09-28T03:24:59.131Z,1004.7
2016-09-28T03:25:19.737Z,1004.7
2016-09-28T03:25:40.325Z,1004.7
2016-09-28T03:26:00.905Z,1004.7
2016-09-28T03:26:21.499Z,1004.7
2016-09-28T03:26:42.065Z,1004.7
2016-09-28T03:27:02.649Z,1004.7
2016-09-28T03:27:23.221Z,1004.7
2016-09-28T03:27:43.797Z,1004.7
2016-09-28T03:28:04.401Z,1004.7
2016-09-28T03:28:25.018Z,1004.6
2016-09-28T03:28:45.595Z,1004.6
2016-09-28T03:29:06.161Z,1004.6
2016-09-28T03:29:26.752Z,1004.6
2016-09-28T03:29:47.333Z,1004.6
2016-09-28T03:30:07.911Z,1004.6
2016-09-28T03:30:28.500Z,1004.6
2016-09-28T03:30:49.075Z,1004.6
2016-09-28T03:31:09.656Z,1004.6
2016-09-28T03:31:30.238Z,1004.6
2016-09-28T03:31:50.814Z,1004.6
2016-09-28T03:32:11.406Z,1004.6
2016-09-28T03:32:31.984Z,1004.6
2016-09-28T03:32:52.570Z,1004.6
2016-09-28T03:33:13.166Z,1004.6
2016-09-28T03:33:33.749Z,1004.6
2016-09-28T03:33:54.318Z,1004.6
2016-09-28T03:34:14.922Z,1004.6
2016-09-28T03:34:35.488Z,1004.6
2016-09-28T03:34:56.069Z,1004.6
2016-09-28T03:35:16.643Z,1004.5
2016-09-28T03:35:37.243Z,1004.6
2016-09-28T03:35:57.843Z,1004.6
2016-09-28T03:36:18.420Z,1004.6
2016-09-28T03:36:39.007Z,1004.6
2016-09-28T03:36:59.581Z,1004.6
2016-09-28T03:37:20.145Z,1004.5
2016-09-28T03:37:40.753Z,1004.5
2016-09-28T03:38:01.338Z,1004.6
2016-09-28T03:38:21.905Z,1004.6
2016-09-28T03:38:42.481Z,1004.6
2016-09-28T03:39:03.069Z,1004.6
2016-09-28T03:39:23.663Z,1004.6
2016-09-28T03:39:44.257Z,1004.6
2016-09-28T03:40:04.837Z,1004.6
2016-09-28T03:40:25.431Z,1004.6
2016-09-28T03:40:46.044Z,1004.6
2016-09-28T03:41:06.634Z,1004.6
2016-09-28T03:41:27.210Z,1004.6
2016-09-28T03:41:47.782Z,1004.6
2016-09-28T03:42:08.367Z,1004.6
2016-09-28T03:42:28.959Z,1004.6
2016-09-28T03:42:49.540Z,1004.6
2016-09-28T03:43:10.134Z,1004.6
2016-09-28T03:43:30.731Z,1004.6
2016-09-28T03:43:51.315Z,1004.6
2016-09-28T03:44:11.886Z,1004.6
2016-09-28T03:44:32.462Z,1004.6
2016-09-28T03:44:53.044Z,1004.6
2016-09-28T03:45:13.621Z,1004.7
2016-09-28T03:45:34.191Z,1004.6
2016-09-28T03:45:54.762Z,1004.6
2016-09-28T03:46:15.334Z,1004.6
2016-09-28T03:46:35.904Z,1004.7
2016-09-28T03:46:56.492Z,1004.6
2016-09-28T03:47:17.078Z,1004.6
2016-09-28T03:47:37.659Z,1004.6
2016-09-28T03:47:58.244Z,1004.6
2016-09-28T03:48:18.829Z,1004.7
2016-09-28T03:48:39.419Z,1004.6
2016-09-28T03:48:59.969Z,1004.6
2016-09-28T03:49:20.538Z,1004.6
2016-09-28T03:49:41.167Z,1004.6
2016-09-28T03:50:01.756Z,1004.7
2016-09-28T03:50:22.421Z,1004.6
2016-09-28T03:50:42.990Z,1004.6
2016-09-28T03:51:03.570Z,1004.6
2016-09-28T03:51:24.158Z,1004.7
2016-09-28T03:51:44.739Z,1004.6
2016-09-28T03:52:05.355Z,1004.6
2016-09-28T03:52:25.934Z,1004.7
2016-09-28T03:52:46.515Z,1004.6
2016-09-28T03:53:07.112Z,1004.6
2016-09-28T03:53:27.712Z,1004.6
2016-09-28T03:53:48.272Z,1004.6
2016-09-28T03:54:08.853Z,1004.6
2016-09-28T03:54:29.416Z,1004.6
2016-09-28T03:54:49.997Z,1004.6
2016-09-28T03:55:10.584Z,1004.6
2016-09-28T03:55:31.156Z,1004.6
2016-09-28T03:55:51.749Z,1004.6
2016-09-28T03:56:12.361Z,1004.6
2016-09-28T03:56:32.940Z,1004.6
2016-09-28T03:56:53.494Z,1004.6
2016-09-28T03:57:14.071Z,1004.6
2016-09-28T03:57:34.661Z,1004.6
2016-09-28T03:57:55.246Z,1004.6
2016-09-28T03:58:15.809Z,1004.6
2016-09-28T03:58:36.373Z,1004.6
2016-09-28T03:58:56.953Z,1004.6
2016-09-28T03:59:17.528Z,1004.6
2016-09-28T03:59:38.137Z,1004.6
2016-09-28T03:59:58.696Z,1004.6
2016-09-28T04:00:19.263Z,1004.6
2016-09-28T04:00:39.847Z,1004.6
2016-09-28T04:01:00.421Z,1004.6
2016-09-28T04:01:21.010Z,1004.6
2016-09-28T04:01:41.588Z,1004.6
2016-09-28T04:02:02.152Z,1004.6
2016-09-28T04:02:22.744Z,1004.6
2016-09-28T04:02:43.321Z,1004.6
2016-09-28T04:03:03.925Z,1004.6
2016-09-28T04:03:24.483Z,1004.5
2016-09-28T04:03:45.125Z,1004.6
2016-09-28T04:04:05.704Z,1004.5
2016-09-28T04:04:26.287Z,1004.5
2016-09-28T04:04:46.867Z,1004.5
2016-09-28T04:05:07.438Z,1004.6
2016-09-28T04:05:28.120Z,1004.5
2016-09-28T04:05:48.727Z,1004.5
2016-09-28T04:06:09.341Z,1004.6
2016-09-28T04:06:29.910Z,1004.6
2016-09-28T04:06:50.473Z,1004.6
2016-09-28T04:07:11.046Z,1004.5
2016-09-28T04:07:31.627Z,1004.5
2016-09-28T04:07:52.183Z,1004.5
2016-09-28T04:08:12.760Z,1004.5
2016-09-28T04:08:33.345Z,1004.6
2016-09-28T04:08:53.927Z,1004.6
2016-09-28T04:09:14.496Z,1004.5
2016-09-28T04:09:35.065Z,1004.5
2016-09-28T04:09:55.637Z,1004.5
2016-09-28T04:10:16.230Z,1004.5
2016-09-28T04:10:36.811Z,1004.6
2016-09-28T04:10:57.375Z,1004.5
2016-09-28T04:11:17.948Z,1004.5
2016-09-28T04:11:38.538Z,1004.6
2016-09-28T04:11:59.115Z,1004.5
2016-09-28T04:12:19.703Z,1004.6
2016-09-28T04:12:40.278Z,1004.5
2016-09-28T04:13:00.846Z,1004.6
2016-09-28T04:13:21.417Z,1004.6
2016-09-28T04:13:42.005Z,1004.6
2016-09-28T04:14:02.585Z,1004.5
2016-09-28T04:14:23.186Z,1004.6
2016-09-28T04:14:43.757Z,1004.6
2016-09-28T04:15:04.354Z,1004.6
2016-09-28T04:15:24.907Z,1004.6
2016-09-28T04:15:45.495Z,1004.6
2016-09-28T04:16:06.075Z,1004.6
2016-09-28T04:16:26.660Z,1004.6
2016-09-28T04:16:47.239Z,1004.6
2016-09-28T04:17:07.829Z,1004.6
2016-09-28T04:17:28.408Z,1004.6
2016-09-28T04:17:48.988Z,1004.6
2016-09-28T04:18:09.560Z,1004.6
2016-09-28T04:18:30.127Z,1004.6